Terminal Aerodrome Forecast
Issued by NWS

Home | Current Version | Previous Version | Text Only | Print | Product List | Glossary On
Versions: 1 2 3 4 5 6 7 8 9 10 11 12 13 14 15 16 17 18 19 20
000
FTUS43 KDLH 280707 AAA
TAFHIB
TAF AMD
KHIB 280707Z 2807/2906 VRB02KT 1/2SM FG OVC002
      TEMPO 2807/2810 1/4SM FG OVC004
     FM281000 00000KT 1/4SM FG BKN002
      TEMPO 2810/2812 2SM BR SCT005
     FM281200 08005KT P6SM SCT040=

USA.gov is the U.S. government's official web portal to all federal, state and local government web resources and services.